Map

Track Data

SID SEASON NUMBER BASIN SUBBASIN NAME ISO_TIME NATURE LAT LON WMO_WIND WMO_PRES WMO_AGENCY TRACK_TYPE DIST2LAND LANDFALL IFLAG USA_AGENCY USA_ATCF_ID USA_LAT USA_LON USA_RECORD USA_STATUS USA_WIND USA_PRES USA_SSHS USA_R34_NE USA_R34_SE USA_R34_SW USA_R34_NW USA_R50_NE USA_R50_SE USA_R50_SW USA_R50_NW USA_R64_NE USA_R64_SE USA_R64_SW USA_R64_NW USA_POCI USA_ROCI USA_RMW USA_EYE TOKYO_LAT TOKYO_LON TOKYO_GRADE TOKYO_WIND TOKYO_PRES TOKYO_R50_DIR TOKYO_R50_LONG TOKYO_R50_SHORT TOKYO_R30_DIR TOKYO_R30_LONG TOKYO_R30_SHORT TOKYO_LAND CMA_LAT CMA_LON CMA_CAT CMA_WIND CMA_PRES HKO_LAT HKO_LON HKO_CAT HKO_WIND HKO_PRES NEWDELHI_LAT NEWDELHI_LON NEWDELHI_GRADE NEWDELHI_WIND NEWDELHI_PRES NEWDELHI_CI NEWDELHI_DP NEWDELHI_POCI REUNION_LAT REUNION_LON REUNION_TYPE REUNION_WIND REUNION_PRES REUNION_TNUM REUNION_CI REUNION_RMW REUNION_R34_NE REUNION_R34_SE REUNION_R34_SW REUNION_R34_NW REUNION_R50_NE REUNION_R50_SE REUNION_R50_SW REUNION_R50_NW REUNION_R64_NE REUNION_R64_SE REUNION_R64_SW REUNION_R64_NW BOM_LAT BOM_LON BOM_TYPE BOM_WIND BOM_PRES BOM_TNUM BOM_CI BOM_RMW BOM_R34_NE BOM_R34_SE BOM_R34_SW BOM_R34_NW BOM_R50_NE BOM_R50_SE BOM_R50_SW BOM_R50_NW BOM_R64_NE BOM_R64_SE BOM_R64_SW BOM_R64_NW BOM_ROCI BOM_POCI BOM_EYE BOM_POS_METHOD BOM_PRES_METHOD NADI_LAT NADI_LON NADI_CAT NADI_WIND NADI_PRES WELLINGTON_LAT WELLINGTON_LON WELLINGTON_WIND WELLINGTON_PRES DS824_LAT DS824_LON DS824_STAGE DS824_WIND DS824_PRES TD9636_LAT TD9636_LON TD9636_STAGE TD9636_WIND TD9636_PRES TD9635_LAT TD9635_LON TD9635_WIND TD9635_PRES TD9635_ROCI NEUMANN_LAT NEUMANN_LON NEUMANN_CLASS NEUMANN_WIND NEUMANN_PRES MLC_LAT MLC_LON MLC_CLASS MLC_WIND MLC_PRES USA_GUST BOM_GUST BOM_GUST_PER REUNION_GUST REUNION_GUST_PER USA_SEAHGT USA_SEARAD_NE USA_SEARAD_SE USA_SEARAD_SW USA_SEARAD_NW STORM_SPEED STORM_DIR
1975155N16087 1975 43 NI BB NOT_NAMED 1975-06-04 00:00:00 TS 15.7000 87.4000 main 454 439 O________OO___ jtwc_io IO051975 15.7000 87.4000 -1 15.7000 87.4000 TC 25 15.7000 87.4000 1 4 7
1975155N16087 1975 43 NI BB NOT_NAMED 1975-06-04 03:00:00 TS 15.8962 87.4254 main 439 431 P________PP___ IO051975 15.8901 87.4275 -1 15.8901 87.4275 TC 25 15.9084 87.4213 1 4 13
1975155N16087 1975 43 NI BB NOT_NAMED 1975-06-04 06:00:00 TS 16.1078 87.4980 main 431 423 O________OP___ jtwc_io IO051975 16.1000 87.5000 -1 16.1000 87.5000 TC 25 16.1235 87.4940 1 5 28
1975155N16087 1975 43 NI BB NOT_NAMED 1975-06-04 09:00:00 TS 16.3455 87.6683 main 431 412 P________PP___ IO051975 16.3423 87.6677 -1 16.3423 87.6677 TC 25 16.3519 87.6696 1 7 44
1975155N16087 1975 43 NI BB NOT_NAMED 1975-06-04 12:00:00 TS 16.6000 88.0000 main 416 410 O________OO___ jtwc_io IO051975 16.6000 88.0000 -1 16.6000 88.0000 TC 25 16.6000 88.0000 1 10 59
1975155N16087 1975 43 NI BB NOT_NAMED 1975-06-04 15:00:00 TS 16.8565 88.5408 main 411 411 P________PP___ IO051975 16.8503 88.5549 -1 16.8503 88.5549 TC 25 16.8689 88.5124 1 12 66
1975155N16087 1975 43 NI BB NOT_NAMED 1975-06-04 18:00:00 TS 17.1133 89.1777 main 438 437 O________OP___ jtwc_io IO051975 17.1000 89.2000 -1 17.1000 89.2000 TC 25 17.1400 89.1331 1 13 66
1975155N16087 1975 43 NI BB NOT_NAMED 1975-06-04 21:00:00 TS 17.3787 89.7891 main 444 391 P________PP___ IO051975 17.3726 89.8024 -1 17.3726 89.8024 TC 25 17.3908 89.7625 1 12 66
1975155N16087 1975 43 NI BB NOT_NAMED 1975-06-05 00:00:00 TS 17.6000 90.3000 main 391 358 O________OO___ jtwc_io IO051975 17.6000 90.3000 -1 17.6000 90.3000 TC 25 17.6000 90.3000 1 9 67
1975155N16087 1975 43 NI BB NOT_NAMED 1975-06-05 03:00:00 TS 17.7113 90.6179 main 358 334 P________PP___ IO051975 17.7223 90.6102 -1 17.7223 90.6102 TC 25 17.6894 90.6332 1 5 70
1975155N16087 1975 43 NI BB NOT_NAMED 1975-06-05 06:00:00 TS 17.7822 90.8196 main 334 314 O________OP___ jtwc_io IO051975 17.8000 90.8000 -1 17.8000 90.8000 TC 25 17.7465 90.8587 1 4 69
1975155N16087 1975 43 NI BB NOT_NAMED 1975-06-05 09:00:00 TS 17.8468 90.9883 main 314 296 P________PP___ IO051975 17.8550 90.9801 -1 17.8550 90.9801 TC 25 17.8303 91.0047 1 3 51
1975155N16087 1975 43 NI BB NOT_NAMED 1975-06-05 12:00:00 TS 18.0000 91.1000 main 296 269 O________OO___ jtwc_io IO051975 18.0000 91.1000 -1 18.0000 91.1000 TC 25 18.0000 91.1000 1 5 19
1975155N16087 1975 43 NI BB NOT_NAMED 1975-06-05 15:00:00 TS 18.3530 91.1744 main 260 229 P________PP___ IO051975 18.3475 91.1650 -1 18.3475 91.1650 TC 25 18.3639 91.1932 1 8 8
1975155N16087 1975 43 NI BB NOT_NAMED 1975-06-05 18:00:00 TS 18.8041 91.2151 main 229 184 O________OP___ jtwc_io IO051975 18.8000 91.2000 -1 18.8000 91.2000 TC 25 18.8124 91.2451 1 9 5
1975155N16087 1975 43 NI BB NOT_NAMED 1975-06-05 21:00:00 TS 19.2799 91.2582 main 184 160 P________PP___ IO051975 19.2800 91.2500 -1 19.2800 91.2500 TC 30 19.2796 91.2745 1 9 5
1975155N16087 1975 43 NI BB NOT_NAMED 1975-06-06 00:00:00 TS 19.7000 91.3000 main 160 145 O________OO___ jtwc_io IO051975 19.7000 91.3000 -1 19.7000 91.3000 TC 35 19.7000 91.3000 2 7 8
1975155N16087 1975 43 NI BB NOT_NAMED 1975-06-06 03:00:00 TS 19.9421 91.3488 main 145 123 P________PP___ IO051975 19.9300 91.3501 -1 19.9300 91.3501 TC 35 19.9662 91.3462 2 4 11
1975155N16087 1975 43 NI BB NOT_NAMED 1975-06-06 06:00:00 TS 20.1266 91.3976 main 123 113 O________OP___ jtwc_io IO051975 20.1000 91.4000 -1 20.1000 91.4000 TC 35 20.1799 91.3928 2 4 13
1975155N16087 1975 43 NI BB NOT_NAMED 1975-06-06 09:00:00 TS 20.3496 91.4477 main 113 89 P________PP___ IO051975 20.3350 91.4500 -1 20.3350 91.4500 TC 35 20.3787 91.4431 2 5 11
1975155N16087 1975 43 NI BB NOT_NAMED 1975-06-06 12:00:00 TS 20.6000 91.5000 main 89 61 O________OO___ jtwc_io IO051975 20.6000 91.5000 -1 20.6000 91.5000 TC 35 20.6000 91.5000 2 5 10
1975155N16087 1975 43 NI BB NOT_NAMED 1975-06-06 15:00:00 TS 20.8833 91.5537 main 61 45 P________PP___ IO051975 20.8850 91.5426 -1 20.8850 91.5426 TC 35 20.8800 91.5758 2 6 10
1975155N16087 1975 43 NI BB NOT_NAMED 1975-06-06 18:00:00 TS 21.1967 91.6191 main 45 20 O________OP___ jtwc_io IO051975 21.2000 91.6000 -1 21.2000 91.6000 TC 35 21.1901 91.6573 2 7 13
1975155N16087 1975 43 NI BB NOT_NAMED 1975-06-06 21:00:00 TS 21.5334 91.7117 main 20 10 P________PP___ IO051975 21.5350 91.6999 -1 21.5350 91.6999 TC 35 21.5301 91.7352 2 7 13
1975155N16087 1975 43 NI BB NOT_NAMED 1975-06-07 00:00:00 TS 21.9000 91.8000 main 10 0 O________OO___ jtwc_io IO051975 21.9000 91.8000 -1 21.9000 91.8000 TC 35 21.9000 91.8000 2 8 10
1975155N16087 1975 43 NI BB NOT_NAMED 1975-06-07 03:00:00 TS 22.2896 91.8583 main 0 0 P________PP___ IO051975 22.2850 91.8650 -1 22.2850 91.8650 TC 30 22.2987 91.8448 2 8 6
1975155N16087 1975 43 NI BB NOT_NAMED 1975-06-07 06:00:00 TS 22.7067 91.8909 main 0 0 O________OP___ jtwc_io IO051975 22.7000 91.9000 -1 22.7000 91.9000 TC 25 22.7200 91.8727 2 9 3
1975155N16087 1975 43 NI BB NOT_NAMED 1975-06-07 09:00:00 TS 23.1471 91.9014 main 0 0 P________PP___ IO051975 23.1425 91.9075 -1 23.1425 91.9075 TC 25 23.1562 91.8892 2 9 1
1975155N16087 1975 43 NI BB NOT_NAMED 1975-06-07 12:00:00 TS 23.6000 91.9000 main 0 O________OO___ jtwc_io IO051975 23.6000 91.9000 -1 23.6000 91.9000 TC 25 23.6000 91.9000 1 9 0

About IBTrACS Database

This database is a web-friendly format of International Best Track Archive for Climate Stewardship (IBTrACS), a global best track data archive curated by NOAA dating back to 1842.

Updated: 2021-10-19